sensor_id;sensor_type;location;lat;lon;timestamp;pressure;altitude;pressure_sealevel;temperature;humidity
41654;BME280;68687;52.030;7.110;2024-03-17T00:01:40;101584.66;;;4.49;100.00
41654;BME280;68687;52.030;7.110;2024-03-17T00:04:06;101595.31;;;4.49;100.00
41654;BME280;68687;52.030;7.110;2024-03-17T00:06:32;101587.66;;;4.22;100.00
41654;BME280;68687;52.030;7.110;2024-03-17T00:08:58;101596.00;;;4.29;100.00
41654;BME280;68687;52.030;7.110;2024-03-17T00:11:23;101610.03;;;4.42;100.00
41654;BME280;68687;52.030;7.110;2024-03-17T00:13:49;101612.81;;;4.52;100.00
41654;BME280;68687;52.030;7.110;2024-03-17T00:16:14;101592.63;;;4.27;100.00
41654;BME280;68687;52.030;7.110;2024-03-17T00:18:44;101598.19;;;4.35;100.00
41654;BME280;68687;52.030;7.110;2024-03-17T00:21:09;101605.34;;;4.46;100.00
41654;BME280;68687;52.030;7.110;2024-03-17T00:23:34;101590.19;;;4.24;100.00
41654;BME280;68687;52.030;7.110;2024-03-17T00:26:00;101586.69;;;4.23;100.00
41654;BME280;68687;52.030;7.110;2024-03-17T00:28:25;101592.75;;;4.48;100.00
41654;BME280;68687;52.030;7.110;2024-03-17T00:30:50;101580.66;;;4.55;100.00
41654;BME280;68687;52.030;7.110;2024-03-17T00:33:16;101578.25;;;4.63;100.00
41654;BME280;68687;52.030;7.110;2024-03-17T00:35:41;101593.00;;;4.78;100.00
41654;BME280;68687;52.030;7.110;2024-03-17T00:38:07;101578.63;;;4.70;98.55
41654;BME280;68687;52.030;7.110;2024-03-17T00:40:38;101577.91;;;4.45;100.00
41654;BME280;68687;52.030;7.110;2024-03-17T00:43:05;101581.41;;;4.46;100.00
41654;BME280;68687;52.030;7.110;2024-03-17T00:45:31;101564.47;;;4.47;100.00
41654;BME280;68687;52.030;7.110;2024-03-17T00:47:56;101585.75;;;4.47;100.00
41654;BME280;68687;52.030;7.110;2024-03-17T00:50:22;101570.88;;;4.44;100.00
41654;BME280;68687;52.030;7.110;2024-03-17T00:52:47;101566.03;;;4.27;100.00
41654;BME280;68687;52.030;7.110;2024-03-17T00:55:12;101556.25;;;4.27;100.00
41654;BME280;68687;52.030;7.110;2024-03-17T00:57:39;101563.75;;;4.22;100.00
41654;BME280;68687;52.030;7.110;2024-03-17T01:00:05;101560.00;;;4.36;100.00
41654;BME280;68687;52.030;7.110;2024-03-17T01:02:34;101557.09;;;4.50;100.00
41654;BME280;68687;52.030;7.110;2024-03-17T01:05:00;101550.06;;;4.60;100.00
41654;BME280;68687;52.030;7.110;2024-03-17T01:07:25;101527.75;;;4.41;100.00
41654;BME280;68687;52.030;7.110;2024-03-17T01:09:53;101543.31;;;4.34;100.00
41654;BME280;68687;52.030;7.110;2024-03-17T01:12:20;101548.75;;;4.21;100.00
41654;BME280;68687;52.030;7.110;2024-03-17T01:14:45;101537.50;;;3.95;100.00
41654;BME280;68687;52.030;7.110;2024-03-17T01:17:10;101529.19;;;3.89;100.00
41654;BME280;68687;52.030;7.110;2024-03-17T01:19:42;101534.72;;;3.97;100.00
41654;BME280;68687;52.030;7.110;2024-03-17T01:22:07;101530.47;;;3.72;100.00
41654;BME280;68687;52.030;7.110;2024-03-17T01:24:32;101532.31;;;4.05;100.00
41654;BME280;68687;52.030;7.110;2024-03-17T01:26:59;101522.28;;;3.86;100.00
41654;BME280;68687;52.030;7.110;2024-03-17T01:29:25;101529.25;;;3.76;100.00
41654;BME280;68687;52.030;7.110;2024-03-17T01:31:50;101525.28;;;3.82;100.00
41654;BME280;68687;52.030;7.110;2024-03-17T01:34:17;101530.97;;;3.88;100.00
41654;BME280;68687;52.030;7.110;2024-03-17T01:36:43;101518.66;;;3.87;100.00
41654;BME280;68687;52.030;7.110;2024-03-17T01:39:08;101531.09;;;3.98;100.00
41654;BME280;68687;52.030;7.110;2024-03-17T01:41:34;101524.47;;;4.03;100.00
41654;BME280;68687;52.030;7.110;2024-03-17T01:44:00;101536.06;;;4.02;100.00
41654;BME280;68687;52.030;7.110;2024-03-17T01:46:25;101528.09;;;4.25;100.00
41654;BME280;68687;52.030;7.110;2024-03-17T01:48:51;101505.03;;;4.03;100.00
41654;BME280;68687;52.030;7.110;2024-03-17T01:51:17;101503.22;;;3.92;100.00
41654;BME280;68687;52.030;7.110;2024-03-17T01:53:43;101506.59;;;3.94;100.00
41654;BME280;68687;52.030;7.110;2024-03-17T01:56:13;101518.06;;;3.84;100.00
41654;BME280;68687;52.030;7.110;2024-03-17T01:58:44;101519.13;;;3.81;100.00
41654;BME280;68687;52.030;7.110;2024-03-17T02:01:11;101520.47;;;4.09;100.00
41654;BME280;68687;52.030;7.110;2024-03-17T02:03:40;101521.44;;;4.08;100.00
41654;BME280;68687;52.030;7.110;2024-03-17T02:06:05;101527.84;;;4.06;100.00
41654;BME280;68687;52.030;7.110;2024-03-17T02:08:50;101535.81;;;4.06;100.00
41654;BME280;68687;52.030;7.110;2024-03-17T02:11:32;101525.44;;;3.91;100.00
41654;BME280;68687;52.030;7.110;2024-03-17T02:13:59;101513.97;;;3.91;100.00
41654;BME280;68687;52.030;7.110;2024-03-17T02:16:28;101514.28;;;3.75;100.00
41654;BME280;68687;52.030;7.110;2024-03-17T02:18:57;101526.63;;;3.87;100.00
41654;BME280;68687;52.030;7.110;2024-03-17T02:21:24;101512.13;;;3.80;100.00
41654;BME280;68687;52.030;7.110;2024-03-17T02:23:53;101505.34;;;3.76;100.00
41654;BME280;68687;52.030;7.110;2024-03-17T02:26:19;101516.09;;;3.63;100.00
41654;BME280;68687;52.030;7.110;2024-03-17T02:28:45;101510.88;;;3.62;100.00
41654;BME280;68687;52.030;7.110;2024-03-17T02:31:13;101504.56;;;3.40;100.00
41654;BME280;68687;52.030;7.110;2024-03-17T02:33:39;101514.31;;;3.40;100.00
41654;BME280;68687;52.030;7.110;2024-03-17T02:36:05;101511.06;;;3.48;100.00
41654;BME280;68687;52.030;7.110;2024-03-17T02:38:34;101508.41;;;3.36;100.00
41654;BME280;68687;52.030;7.110;2024-03-17T02:41:22;101518.13;;;3.60;100.00
41654;BME280;68687;52.030;7.110;2024-03-17T02:43:47;101496.00;;;3.48;100.00
41654;BME280;68687;52.030;7.110;2024-03-17T02:46:17;101506.97;;;3.44;100.00
41654;BME280;68687;52.030;7.110;2024-03-17T02:48:44;101503.59;;;3.53;100.00
41654;BME280;68687;52.030;7.110;2024-03-17T02:51:16;101504.84;;;3.60;100.00
41654;BME280;68687;52.030;7.110;2024-03-17T02:53:42;101482.84;;;3.47;100.00
41654;BME280;68687;52.030;7.110;2024-03-17T02:56:08;101489.38;;;3.54;100.00
41654;BME280;68687;52.030;7.110;2024-03-17T02:58:35;101481.88;;;3.48;100.00
41654;BME280;68687;52.030;7.110;2024-03-17T03:01:01;101491.03;;;3.44;100.00
41654;BME280;68687;52.030;7.110;2024-03-17T03:03:27;101484.78;;;3.09;100.00
41654;BME280;68687;52.030;7.110;2024-03-17T03:05:52;101464.34;;;2.99;100.00
41654;BME280;68687;52.030;7.110;2024-03-17T03:08:17;101492.06;;;2.95;100.00
41654;BME280;68687;52.030;7.110;2024-03-17T03:10:46;101478.34;;;3.01;100.00
41654;BME280;68687;52.030;7.110;2024-03-17T03:13:12;101475.47;;;3.04;100.00
41654;BME280;68687;52.030;7.110;2024-03-17T03:15:40;101484.47;;;3.25;100.00
41654;BME280;68687;52.030;7.110;2024-03-17T03:18:06;101471.91;;;3.16;100.00
41654;BME280;68687;52.030;7.110;2024-03-17T03:20:41;101478.78;;;2.95;100.00
41654;BME280;68687;52.030;7.110;2024-03-17T03:23:06;101487.59;;;2.95;100.00
41654;BME280;68687;52.030;7.110;2024-03-17T03:25:32;101487.94;;;2.91;100.00
41654;BME280;68687;52.030;7.110;2024-03-17T03:27:57;101487.25;;;3.00;100.00
41654;BME280;68687;52.030;7.110;2024-03-17T03:30:23;101485.16;;;3.16;100.00
41654;BME280;68687;52.030;7.110;2024-03-17T03:32:49;101501.28;;;3.37;100.00
41654;BME280;68687;52.030;7.110;2024-03-17T03:35:15;101486.69;;;3.31;100.00
41654;BME280;68687;52.030;7.110;2024-03-17T03:37:43;101497.06;;;3.34;100.00
41654;BME280;68687;52.030;7.110;2024-03-17T03:40:09;101488.38;;;3.44;100.00
41654;BME280;68687;52.030;7.110;2024-03-17T03:42:42;101491.78;;;3.46;100.00
41654;BME280;68687;52.030;7.110;2024-03-17T03:45:08;101484.66;;;3.46;100.00
41654;BME280;68687;52.030;7.110;2024-03-17T03:47:34;101502.44;;;3.57;100.00
41654;BME280;68687;52.030;7.110;2024-03-17T03:50:00;101494.78;;;3.52;100.00
41654;BME280;68687;52.030;7.110;2024-03-17T03:52:28;101490.31;;;3.41;100.00
41654;BME280;68687;52.030;7.110;2024-03-17T03:54:54;101501.22;;;3.61;100.00
41654;BME280;68687;52.030;7.110;2024-03-17T03:57:20;101490.34;;;3.53;100.00
41654;BME280;68687;52.030;7.110;2024-03-17T03:59:45;101491.59;;;3.60;100.00
41654;BME280;68687;52.030;7.110;2024-03-17T04:02:13;101485.19;;;3.27;100.00
41654;BME280;68687;52.030;7.110;2024-03-17T04:04:39;101496.56;;;3.29;100.00
41654;BME280;68687;52.030;7.110;2024-03-17T04:07:07;101489.63;;;3.16;100.00
41654;BME280;68687;52.030;7.110;2024-03-17T04:09:33;101491.13;;;3.31;100.00
41654;BME280;68687;52.030;7.110;2024-03-17T04:11:58;101507.31;;;3.39;100.00
41654;BME280;68687;52.030;7.110;2024-03-17T04:14:30;101496.44;;;3.31;100.00
41654;BME280;68687;52.030;7.110;2024-03-17T04:16:56;101482.53;;;3.27;100.00
41654;BME280;68687;52.030;7.110;2024-03-17T04:19:21;101496.38;;;3.55;100.00
41654;BME280;68687;52.030;7.110;2024-03-17T04:21:47;101480.66;;;3.29;100.00
41654;BME280;68687;52.030;7.110;2024-03-17T04:24:12;101482.72;;;3.37;100.00
41654;BME280;68687;52.030;7.110;2024-03-17T04:26:38;101478.47;;;3.34;100.00
41654;BME280;68687;52.030;7.110;2024-03-17T04:29:03;101484.88;;;3.32;100.00
41654;BME280;68687;52.030;7.110;2024-03-17T04:31:31;101483.69;;;3.47;100.00
41654;BME280;68687;52.030;7.110;2024-03-17T04:33:59;101471.63;;;3.43;100.00
41654;BME280;68687;52.030;7.110;2024-03-17T04:36:24;101475.25;;;3.42;100.00
41654;BME280;68687;52.030;7.110;2024-03-17T04:38:50;101468.81;;;3.33;100.00
41654;BME280;68687;52.030;7.110;2024-03-17T04:41:16;101460.28;;;3.41;100.00
41654;BME280;68687;52.030;7.110;2024-03-17T04:43:42;101461.84;;;3.32;100.00
41654;BME280;68687;52.030;7.110;2024-03-17T04:46:07;101472.94;;;3.37;100.00
41654;BME280;68687;52.030;7.110;2024-03-17T04:48:37;101474.38;;;3.41;100.00
41654;BME280;68687;52.030;7.110;2024-03-17T04:51:05;101458.78;;;3.26;100.00
41654;BME280;68687;52.030;7.110;2024-03-17T04:53:30;101481.16;;;3.46;100.00
41654;BME280;68687;52.030;7.110;2024-03-17T04:56:03;101465.69;;;3.39;100.00
41654;BME280;68687;52.030;7.110;2024-03-17T04:58:33;101447.31;;;3.25;100.00
41654;BME280;68687;52.030;7.110;2024-03-17T05:01:06;101461.03;;;3.08;100.00
41654;BME280;68687;52.030;7.110;2024-03-17T05:03:41;101449.94;;;3.14;100.00
41654;BME280;68687;52.030;7.110;2024-03-17T05:06:07;101454.78;;;3.20;100.00
41654;BME280;68687;52.030;7.110;2024-03-17T05:08:33;101455.81;;;3.41;100.00
41654;BME280;68687;52.030;7.110;2024-03-17T05:11:04;101438.81;;;3.44;100.00
41654;BME280;68687;52.030;7.110;2024-03-17T05:13:33;101451.25;;;3.55;100.00
41654;BME280;68687;52.030;7.110;2024-03-17T05:16:00;101440.84;;;3.40;100.00
41654;BME280;68687;52.030;7.110;2024-03-17T05:18:28;101440.13;;;3.50;100.00
41654;BME280;68687;52.030;7.110;2024-03-17T05:21:02;101436.16;;;3.44;100.00
41654;BME280;68687;52.030;7.110;2024-03-17T05:23:29;101418.16;;;3.48;100.00
41654;BME280;68687;52.030;7.110;2024-03-17T05:25:55;101445.72;;;3.69;100.00
41654;BME280;68687;52.030;7.110;2024-03-17T05:28:22;101439.19;;;3.73;100.00
41654;BME280;68687;52.030;7.110;2024-03-17T05:30:47;101432.94;;;3.74;100.00
41654;BME280;68687;52.030;7.110;2024-03-17T05:33:17;101433.66;;;3.76;100.00
41654;BME280;68687;52.030;7.110;2024-03-17T05:35:55;101434.97;;;3.82;100.00
41654;BME280;68687;52.030;7.110;2024-03-17T05:38:24;101432.19;;;3.83;100.00
41654;BME280;68687;52.030;7.110;2024-03-17T05:40:57;101440.19;;;3.94;100.00
41654;BME280;68687;52.030;7.110;2024-03-17T05:43:25;101443.06;;;4.02;100.00
41654;BME280;68687;52.030;7.110;2024-03-17T05:45:56;101441.88;;;3.95;100.00
41654;BME280;68687;52.030;7.110;2024-03-17T05:48:22;101442.09;;;4.03;100.00
41654;BME280;68687;52.030;7.110;2024-03-17T05:50:49;101435.56;;;4.08;100.00
41654;BME280;68687;52.030;7.110;2024-03-17T05:53:16;101448.38;;;4.25;100.00
41654;BME280;68687;52.030;7.110;2024-03-17T05:55:43;101431.72;;;4.23;100.00
41654;BME280;68687;52.030;7.110;2024-03-17T05:58:09;101426.28;;;4.24;100.00
41654;BME280;68687;52.030;7.110;2024-03-17T06:00:39;101427.22;;;4.34;100.00
41654;BME280;68687;52.030;7.110;2024-03-17T06:03:05;101419.22;;;4.46;100.00
41654;BME280;68687;52.030;7.110;2024-03-17T06:05:38;101418.00;;;4.50;100.00
41654;BME280;68687;52.030;7.110;2024-03-17T06:08:06;101424.97;;;4.62;100.00
41654;BME280;68687;52.030;7.110;2024-03-17T06:10:37;101430.38;;;4.72;100.00
41654;BME280;68687;52.030;7.110;2024-03-17T06:13:04;101441.09;;;4.81;100.00
41654;BME280;68687;52.030;7.110;2024-03-17T06:15:30;101420.94;;;4.79;100.00
41654;BME280;68687;52.030;7.110;2024-03-17T06:17:58;101439.84;;;4.96;100.00
41654;BME280;68687;52.030;7.110;2024-03-17T06:20:26;101418.06;;;4.91;100.00
41654;BME280;68687;52.030;7.110;2024-03-17T06:22:55;101413.16;;;4.87;100.00
41654;BME280;68687;52.030;7.110;2024-03-17T06:25:21;101431.22;;;5.04;100.00
41654;BME280;68687;52.030;7.110;2024-03-17T06:27:50;101421.69;;;5.02;100.00
41654;BME280;68687;52.030;7.110;2024-03-17T06:30:16;101427.31;;;5.08;100.00
41654;BME280;68687;52.030;7.110;2024-03-17T06:32:42;101427.06;;;5.11;100.00
41654;BME280;68687;52.030;7.110;2024-03-17T06:35:14;101437.41;;;5.25;100.00
41654;BME280;68687;52.030;7.110;2024-03-17T06:37:50;101435.16;;;5.21;100.00
41654;BME280;68687;52.030;7.110;2024-03-17T06:40:17;101422.88;;;5.30;100.00
41654;BME280;68687;52.030;7.110;2024-03-17T06:42:43;101428.63;;;5.35;100.00
41654;BME280;68687;52.030;7.110;2024-03-17T06:45:08;101413.19;;;5.28;100.00
41654;BME280;68687;52.030;7.110;2024-03-17T06:47:35;101410.72;;;5.37;100.00
41654;BME280;68687;52.030;7.110;2024-03-17T06:50:02;101424.72;;;5.39;100.00
41654;BME280;68687;52.030;7.110;2024-03-17T06:52:28;101436.03;;;5.52;100.00
41654;BME280;68687;52.030;7.110;2024-03-17T06:54:53;101424.16;;;5.56;100.00
41654;BME280;68687;52.030;7.110;2024-03-17T06:57:19;101421.69;;;5.43;100.00
41654;BME280;68687;52.030;7.110;2024-03-17T06:59:44;101414.47;;;5.34;100.00
41654;BME280;68687;52.030;7.110;2024-03-17T07:02:11;101422.78;;;5.41;100.00
41654;BME280;68687;52.030;7.110;2024-03-17T07:04:40;101414.56;;;5.23;100.00
41654;BME280;68687;52.030;7.110;2024-03-17T07:07:09;101430.47;;;5.34;100.00
41654;BME280;68687;52.030;7.110;2024-03-17T07:09:34;101429.47;;;5.35;100.00
41654;BME280;68687;52.030;7.110;2024-03-17T07:12:03;101423.84;;;5.28;100.00
41654;BME280;68687;52.030;7.110;2024-03-17T07:14:28;101434.38;;;5.51;100.00
41654;BME280;68687;52.030;7.110;2024-03-17T07:16:56;101411.59;;;5.47;100.00
41654;BME280;68687;52.030;7.110;2024-03-17T07:19:21;101416.34;;;5.43;100.00
41654;BME280;68687;52.030;7.110;2024-03-17T07:21:47;101420.41;;;5.68;100.00
41654;BME280;68687;52.030;7.110;2024-03-17T07:24:12;101425.97;;;5.86;100.00
41654;BME280;68687;52.030;7.110;2024-03-17T07:26:38;101431.19;;;5.87;100.00
41654;BME280;68687;52.030;7.110;2024-03-17T07:29:03;101439.03;;;6.19;100.00
41654;BME280;68687;52.030;7.110;2024-03-17T07:31:29;101428.16;;;6.42;100.00
41654;BME280;68687;52.030;7.110;2024-03-17T07:33:57;101441.44;;;7.01;99.62
41654;BME280;68687;52.030;7.110;2024-03-17T07:36:22;101440.97;;;7.35;96.81
41654;BME280;68687;52.030;7.110;2024-03-17T07:38:48;101438.03;;;7.48;94.85
41654;BME280;68687;52.030;7.110;2024-03-17T07:41:14;101437.91;;;8.23;95.36
41654;BME280;68687;52.030;7.110;2024-03-17T07:43:39;101423.63;;;8.60;90.63
41654;BME280;68687;52.030;7.110;2024-03-17T07:46:12;101437.56;;;8.81;89.81
41654;BME280;68687;52.030;7.110;2024-03-17T07:48:42;101437.56;;;9.17;87.86
41654;BME280;68687;52.030;7.110;2024-03-17T07:51:16;101445.88;;;9.32;84.30
41654;BME280;68687;52.030;7.110;2024-03-17T07:53:45;101445.88;;;9.57;84.60
41654;BME280;68687;52.030;7.110;2024-03-17T07:56:15;101446.72;;;9.84;85.40
41654;BME280;68687;52.030;7.110;2024-03-17T07:58:44;101450.06;;;10.12;81.14
41654;BME280;68687;52.030;7.110;2024-03-17T08:01:12;101435.78;;;10.03;79.68
41654;BME280;68687;52.030;7.110;2024-03-17T08:03:39;101449.13;;;9.61;80.50
41654;BME280;68687;52.030;7.110;2024-03-17T08:06:08;101453.69;;;10.20;83.28
41654;BME280;68687;52.030;7.110;2024-03-17T08:08:34;101446.59;;;10.53;79.99
41654;BME280;68687;52.030;7.110;2024-03-17T08:11:03;101452.19;;;10.68;77.31
41654;BME280;68687;52.030;7.110;2024-03-17T08:13:32;101461.53;;;10.64;77.43
41654;BME280;68687;52.030;7.110;2024-03-17T08:16:05;101461.28;;;11.00;75.45
41654;BME280;68687;52.030;7.110;2024-03-17T08:18:32;101465.63;;;10.84;76.01
41654;BME280;68687;52.030;7.110;2024-03-17T08:20:59;101462.25;;;10.91;76.16
41654;BME280;68687;52.030;7.110;2024-03-17T08:23:25;101454.53;;;10.79;75.96
41654;BME280;68687;52.030;7.110;2024-03-17T08:25:54;101456.41;;;10.95;75.33
41654;BME280;68687;52.030;7.110;2024-03-17T08:28:20;101455.38;;;10.72;75.13
41654;BME280;68687;52.030;7.110;2024-03-17T08:30:53;101463.38;;;10.56;75.75
41654;BME280;68687;52.030;7.110;2024-03-17T08:33:19;101445.13;;;10.83;74.71
41654;BME280;68687;52.030;7.110;2024-03-17T08:36:02;101443.50;;;11.15;75.06
41654;BME280;68687;52.030;7.110;2024-03-17T08:38:29;101450.03;;;11.61;73.21
41654;BME280;68687;52.030;7.110;2024-03-17T08:40:55;101448.28;;;12.09;72.24
41654;BME280;68687;52.030;7.110;2024-03-17T08:43:21;101448.00;;;11.88;70.95
41654;BME280;68687;52.030;7.110;2024-03-17T08:45:57;101443.66;;;12.26;68.81
41654;BME280;68687;52.030;7.110;2024-03-17T08:48:25;101462.09;;;11.98;69.42
41654;BME280;68687;52.030;7.110;2024-03-17T08:50:52;101447.28;;;11.77;69.19
41654;BME280;68687;52.030;7.110;2024-03-17T08:53:18;101425.56;;;12.12;69.17
41654;BME280;68687;52.030;7.110;2024-03-17T08:55:43;101436.84;;;11.99;69.56
41654;BME280;68687;52.030;7.110;2024-03-17T08:58:10;101440.66;;;12.21;70.54
41654;BME280;68687;52.030;7.110;2024-03-17T09:00:35;101455.22;;;12.96;67.52
41654;BME280;68687;52.030;7.110;2024-03-17T09:03:02;101447.31;;;12.41;67.63
41654;BME280;68687;52.030;7.110;2024-03-17T09:05:27;101433.53;;;13.21;66.30
41654;BME280;68687;52.030;7.110;2024-03-17T09:07:52;101447.22;;;12.88;62.06
41654;BME280;68687;52.030;7.110;2024-03-17T09:10:18;101442.56;;;12.04;63.14
41654;BME280;68687;52.030;7.110;2024-03-17T09:12:43;101447.78;;;11.97;67.57
41654;BME280;68687;52.030;7.110;2024-03-17T09:15:09;101449.16;;;11.77;65.78
41654;BME280;68687;52.030;7.110;2024-03-17T09:17:37;101456.19;;;12.02;64.23
41654;BME280;68687;52.030;7.110;2024-03-17T09:20:03;101446.66;;;11.67;66.25
41654;BME280;68687;52.030;7.110;2024-03-17T09:22:28;101427.19;;;11.57;67.22
41654;BME280;68687;52.030;7.110;2024-03-17T09:24:54;101439.03;;;12.03;64.10
41654;BME280;68687;52.030;7.110;2024-03-17T09:27:20;101441.22;;;12.08;65.88
41654;BME280;68687;52.030;7.110;2024-03-17T09:29:47;101427.78;;;12.39;65.24
41654;BME280;68687;52.030;7.110;2024-03-17T09:32:13;101409.03;;;12.77;64.35
41654;BME280;68687;52.030;7.110;2024-03-17T09:34:46;101414.25;;;12.78;63.63
41654;BME280;68687;52.030;7.110;2024-03-17T09:37:14;101406.78;;;12.88;64.00
41654;BME280;68687;52.030;7.110;2024-03-17T09:39:39;101418.47;;;13.41;60.93
41654;BME280;68687;52.030;7.110;2024-03-17T09:42:05;101432.22;;;13.69;61.72
41654;BME280;68687;52.030;7.110;2024-03-17T09:44:38;101422.66;;;13.81;59.97
41654;BME280;68687;52.030;7.110;2024-03-17T09:47:05;101429.66;;;13.15;60.60
41654;BME280;68687;52.030;7.110;2024-03-17T09:49:35;101414.56;;;12.52;63.61
41654;BME280;68687;52.030;7.110;2024-03-17T09:52:01;101427.91;;;12.46;62.55
41654;BME280;68687;52.030;7.110;2024-03-17T09:54:27;101414.28;;;12.47;61.25
41654;BME280;68687;52.030;7.110;2024-03-17T09:56:52;101419.47;;;12.80;62.39
41654;BME280;68687;52.030;7.110;2024-03-17T09:59:18;101411.63;;;13.16;62.51
41654;BME280;68687;52.030;7.110;2024-03-17T10:01:43;101425.50;;;13.05;61.72
41654;BME280;68687;52.030;7.110;2024-03-17T10:04:10;101412.69;;;12.61;61.94
41654;BME280;68687;52.030;7.110;2024-03-17T10:06:45;101415.38;;;13.07;63.19
41654;BME280;68687;52.030;7.110;2024-03-17T10:09:16;101405.59;;;13.51;63.05
41654;BME280;68687;52.030;7.110;2024-03-17T10:11:48;101418.25;;;13.51;60.53
41654;BME280;68687;52.030;7.110;2024-03-17T10:14:18;101423.03;;;13.41;60.92
41654;BME280;68687;52.030;7.110;2024-03-17T10:16:43;101416.59;;;13.79;57.68
41654;BME280;68687;52.030;7.110;2024-03-17T10:21:42;101406.66;;;13.27;60.25
41654;BME280;68687;52.030;7.110;2024-03-17T10:24:10;101420.06;;;13.73;59.05
41654;BME280;68687;52.030;7.110;2024-03-17T10:26:57;101407.25;;;14.41;57.67
41654;BME280;68687;52.030;7.110;2024-03-17T10:29:28;101394.03;;;14.31;57.84
41654;BME280;68687;52.030;7.110;2024-03-17T10:34:41;101399.97;;;14.77;57.91
41654;BME280;68687;52.030;7.110;2024-03-17T10:37:17;101397.72;;;14.60;55.86
41654;BME280;68687;52.030;7.110;2024-03-17T10:39:46;101397.31;;;13.68;59.50
41654;BME280;68687;52.030;7.110;2024-03-17T10:42:13;101381.03;;;13.90;58.34
41654;BME280;68687;52.030;7.110;2024-03-17T10:44:41;101401.59;;;14.72;57.22
41654;BME280;68687;52.030;7.110;2024-03-17T10:47:07;101407.75;;;14.30;57.61
41654;BME280;68687;52.030;7.110;2024-03-17T10:49:39;101403.13;;;15.02;53.75
41654;BME280;68687;52.030;7.110;2024-03-17T10:52:17;101414.16;;;14.14;54.55
41654;BME280;68687;52.030;7.110;2024-03-17T10:54:53;101411.75;;;13.89;54.86
41654;BME280;68687;52.030;7.110;2024-03-17T10:57:35;101417.34;;;13.21;57.90
41654;BME280;68687;52.030;7.110;2024-03-17T11:00:04;101416.13;;;13.23;57.15
41654;BME280;68687;52.030;7.110;2024-03-17T11:02:31;101415.00;;;13.55;56.52
41654;BME280;68687;52.030;7.110;2024-03-17T11:05:23;101399.75;;;13.02;55.89
41654;BME280;68687;52.030;7.110;2024-03-17T11:07:51;101390.38;;;12.75;58.49
41654;BME280;68687;52.030;7.110;2024-03-17T11:10:31;101402.09;;;13.05;60.62
41654;BME280;68687;52.030;7.110;2024-03-17T11:12:58;101402.56;;;13.09;58.14
41654;BME280;68687;52.030;7.110;2024-03-17T11:17:52;101416.28;;;12.14;62.83
41654;BME280;68687;52.030;7.110;2024-03-17T11:20:23;101410.13;;;12.05;63.87
41654;BME280;68687;52.030;7.110;2024-03-17T11:22:56;101409.84;;;12.54;63.42
41654;BME280;68687;52.030;7.110;2024-03-17T11:27:56;101405.69;;;12.13;66.55
41654;BME280;68687;52.030;7.110;2024-03-17T11:41:44;101418.53;;;11.94;69.03
41654;BME280;68687;52.030;7.110;2024-03-17T11:51:51;101408.41;;;12.04;68.09
41654;BME280;68687;52.030;7.110;2024-03-17T11:54:19;101414.84;;;11.95;68.07
41654;BME280;68687;52.030;7.110;2024-03-17T11:56:47;101394.84;;;11.90;67.10
41654;BME280;68687;52.030;7.110;2024-03-17T11:59:13;101390.97;;;11.92;68.71
41654;BME280;68687;52.030;7.110;2024-03-17T12:01:39;101395.13;;;12.03;66.85
41654;BME280;68687;52.030;7.110;2024-03-17T12:04:06;101380.75;;;11.71;66.18
41654;BME280;68687;52.030;7.110;2024-03-17T12:06:32;101370.81;;;11.72;66.02
41654;BME280;68687;52.030;7.110;2024-03-17T12:09:17;101372.34;;;11.83;66.24
41654;BME280;68687;52.030;7.110;2024-03-17T12:11:49;101351.00;;;11.81;66.23
41654;BME280;68687;52.030;7.110;2024-03-17T12:14:19;101367.63;;;11.85;67.26
41654;BME280;68687;52.030;7.110;2024-03-17T12:16:52;101355.47;;;11.97;69.61
41654;BME280;68687;52.030;7.110;2024-03-17T12:19:18;101343.28;;;12.17;68.65
41654;BME280;68687;52.030;7.110;2024-03-17T12:21:48;101338.50;;;11.96;65.98
41654;BME280;68687;52.030;7.110;2024-03-17T12:24:34;101347.63;;;11.71;66.31
41654;BME280;68687;52.030;7.110;2024-03-17T12:27:01;101334.22;;;11.63;67.38
41654;BME280;68687;52.030;7.110;2024-03-17T12:32:05;101328.34;;;11.59;68.11
41654;BME280;68687;52.030;7.110;2024-03-17T12:34:32;101322.50;;;11.56;68.50
41654;BME280;68687;52.030;7.110;2024-03-17T12:36:58;101326.13;;;11.79;68.89
41654;BME280;68687;52.030;7.110;2024-03-17T12:39:28;101326.44;;;11.76;68.90
41654;BME280;68687;52.030;7.110;2024-03-17T12:42:08;101340.06;;;11.83;69.25
41654;BME280;68687;52.030;7.110;2024-03-17T12:44:36;101343.91;;;11.88;68.41
41654;BME280;68687;52.030;7.110;2024-03-17T12:47:04;101344.63;;;11.82;69.56
41654;BME280;68687;52.030;7.110;2024-03-17T12:49:31;101338.53;;;11.88;69.24
41654;BME280;68687;52.030;7.110;2024-03-17T12:51:57;101314.13;;;11.90;69.29
41654;BME280;68687;52.030;7.110;2024-03-17T12:54:26;101319.28;;;11.99;69.41
41654;BME280;68687;52.030;7.110;2024-03-17T12:57:03;101323.47;;;12.10;67.22
41654;BME280;68687;52.030;7.110;2024-03-17T12:59:47;101316.22;;;12.11;67.51
41654;BME280;68687;52.030;7.110;2024-03-17T13:02:31;101303.31;;;12.06;69.63
41654;BME280;68687;52.030;7.110;2024-03-17T13:05:17;101310.25;;;12.23;66.48
41654;BME280;68687;52.030;7.110;2024-03-17T13:07:44;101312.53;;;12.03;68.20
41654;BME280;68687;52.030;7.110;2024-03-17T13:10:14;101304.28;;;12.13;68.88
41654;BME280;68687;52.030;7.110;2024-03-17T13:12:40;101294.19;;;12.38;68.08
41654;BME280;68687;52.030;7.110;2024-03-17T13:15:08;101298.38;;;12.41;66.81
41654;BME280;68687;52.030;7.110;2024-03-17T13:17:34;101287.84;;;12.00;66.33
41654;BME280;68687;52.030;7.110;2024-03-17T13:20:00;101282.53;;;11.92;66.83
41654;BME280;68687;52.030;7.110;2024-03-17T13:22:26;101290.50;;;12.08;66.40
41654;BME280;68687;52.030;7.110;2024-03-17T13:24:51;101290.50;;;12.31;66.28
41654;BME280;68687;52.030;7.110;2024-03-17T13:27:17;101284.53;;;12.21;66.94